sensor_id;sensor_type;location;lat;lon;timestamp;pressure;altitude;pressure_sealevel;temperature
76476;BMP280;65308;50.078;14.854;2023-04-06T00:01:10;99563.50;;;-0.09
76476;BMP280;65308;50.078;14.854;2023-04-06T00:03:37;99555.19;;;-0.11
76476;BMP280;65308;50.078;14.854;2023-04-06T00:06:06;99561.63;;;-0.09
76476;BMP280;65308;50.078;14.854;2023-04-06T00:08:32;99557.59;;;-0.02
76476;BMP280;65308;50.078;14.854;2023-04-06T00:10:59;99561.72;;;-0.01
76476;BMP280;65308;50.078;14.854;2023-04-06T00:13:26;99557.59;;;-0.02
76476;BMP280;65308;50.078;14.854;2023-04-06T00:15:53;99557.47;;;-0.10
76476;BMP280;65308;50.078;14.854;2023-04-06T00:18:19;99558.19;;;-0.13
76476;BMP280;65308;50.078;14.854;2023-04-06T00:20:46;99564.13;;;-0.16
76476;BMP280;65308;50.078;14.854;2023-04-06T00:23:14;99557.97;;;-0.23
76476;BMP280;65308;50.078;14.854;2023-04-06T00:25:41;99560.13;;;-0.29
76476;BMP280;65308;50.078;14.854;2023-04-06T00:28:08;99555.56;;;-0.32
76476;BMP280;65308;50.078;14.854;2023-04-06T00:30:34;99551.00;;;-0.35
76476;BMP280;65308;50.078;14.854;2023-04-06T00:33:01;99555.38;;;-0.43
76476;BMP280;65308;50.078;14.854;2023-04-06T00:35:28;99546.56;;;-0.31
76476;BMP280;65308;50.078;14.854;2023-04-06T00:37:54;99554.75;;;-0.36
76476;BMP280;65308;50.078;14.854;2023-04-06T00:40:23;99549.50;;;-0.36
76476;BMP280;65308;50.078;14.854;2023-04-06T00:42:50;99549.50;;;-0.36
76476;BMP280;65308;50.078;14.854;2023-04-06T00:45:17;99547.53;;;-0.39
76476;BMP280;65308;50.078;14.854;2023-04-06T00:47:43;99544.09;;;-0.43
76476;BMP280;65308;50.078;14.854;2023-04-06T00:50:10;99544.84;;;-0.43
76476;BMP280;65308;50.078;14.854;2023-04-06T00:52:37;99541.47;;;-0.43
76476;BMP280;65308;50.078;14.854;2023-04-06T00:55:04;99539.19;;;-0.45
76476;BMP280;65308;50.078;14.854;2023-04-06T00:57:33;99533.63;;;-0.40
76476;BMP280;65308;50.078;14.854;2023-04-06T01:00:00;99533.97;;;-0.41
76476;BMP280;65308;50.078;14.854;2023-04-06T01:02:27;99538.47;;;-0.42
76476;BMP280;65308;50.078;14.854;2023-04-06T01:04:54;99531.28;;;-0.45
76476;BMP280;65308;50.078;14.854;2023-04-06T01:07:21;99530.47;;;-0.49
76476;BMP280;65308;50.078;14.854;2023-04-06T01:09:48;99538.63;;;-0.54
76476;BMP280;65308;50.078;14.854;2023-04-06T01:12:14;99534.06;;;-0.57
76476;BMP280;65308;50.078;14.854;2023-04-06T01:14:43;99528.72;;;-0.61
76476;BMP280;65308;50.078;14.854;2023-04-06T01:17:10;99531.38;;;-0.61
76476;BMP280;65308;50.078;14.854;2023-04-06T01:19:37;99531.78;;;-0.59
76476;BMP280;65308;50.078;14.854;2023-04-06T01:22:05;99530.28;;;-0.60
76476;BMP280;65308;50.078;14.854;2023-04-06T01:24:33;99528.41;;;-0.59
76476;BMP280;65308;50.078;14.854;2023-04-06T01:27:00;99530.94;;;-0.63
76476;BMP280;65308;50.078;14.854;2023-04-06T01:29:27;99524.88;;;-0.67
76476;BMP280;65308;50.078;14.854;2023-04-06T01:31:54;99527.09;;;-0.69
76476;BMP280;65308;50.078;14.854;2023-04-06T01:34:21;99528.47;;;-0.75
76476;BMP280;65308;50.078;14.854;2023-04-06T01:36:47;99522.00;;;-0.81
76476;BMP280;65308;50.078;14.854;2023-04-06T01:39:14;99521.91;;;-0.85
76476;BMP280;65308;50.078;14.854;2023-04-06T01:41:42;99517.69;;;-0.90
76476;BMP280;65308;50.078;14.854;2023-04-06T01:44:09;99520.00;;;-0.88
76476;BMP280;65308;50.078;14.854;2023-04-06T01:46:36;99518.44;;;-0.89
76476;BMP280;65308;50.078;14.854;2023-04-06T01:49:03;99512.84;;;-0.87
76476;BMP280;65308;50.078;14.854;2023-04-06T01:51:30;99512.44;;;-0.90
76476;BMP280;65308;50.078;14.854;2023-04-06T01:53:57;99522.09;;;-0.94
76476;BMP280;65308;50.078;14.854;2023-04-06T01:56:24;99516.03;;;-0.98
76476;BMP280;65308;50.078;14.854;2023-04-06T01:58:53;99517.41;;;-1.04
76476;BMP280;65308;50.078;14.854;2023-04-06T02:01:20;99516.56;;;-1.08
76476;BMP280;65308;50.078;14.854;2023-04-06T02:03:46;99517.19;;;-1.15
76476;BMP280;65308;50.078;14.854;2023-04-06T02:06:13;99516.38;;;-1.19
76476;BMP280;65308;50.078;14.854;2023-04-06T02:08:40;99508.47;;;-1.19
76476;BMP280;65308;50.078;14.854;2023-04-06T02:11:07;99511.44;;;-1.20
76476;BMP280;65308;50.078;14.854;2023-04-06T02:13:34;99506.56;;;-1.22
76476;BMP280;65308;50.078;14.854;2023-04-06T02:16:02;99510.25;;;-1.23
76476;BMP280;65308;50.078;14.854;2023-04-06T02:18:30;99510.59;;;-1.24
76476;BMP280;65308;50.078;14.854;2023-04-06T02:20:56;99508.38;;;-1.22
76476;BMP280;65308;50.078;14.854;2023-04-06T02:23:23;99512.88;;;-1.23
76476;BMP280;65308;50.078;14.854;2023-04-06T02:25:50;99512.13;;;-1.23
76476;BMP280;65308;50.078;14.854;2023-04-06T02:28:17;99512.47;;;-1.25
76476;BMP280;65308;50.078;14.854;2023-04-06T02:30:44;99510.59;;;-1.24
76476;BMP280;65308;50.078;14.854;2023-04-06T02:33:13;99515.53;;;-1.23
76476;BMP280;65308;50.078;14.854;2023-04-06T02:35:40;99517.38;;;-1.23
76476;BMP280;65308;50.078;14.854;2023-04-06T02:38:06;99516.22;;;-1.26
76476;BMP280;65308;50.078;14.854;2023-04-06T02:40:33;99520.72;;;-1.26
76476;BMP280;65308;50.078;14.854;2023-04-06T02:42:59;99516.53;;;-1.27
76476;BMP280;65308;50.078;14.854;2023-04-06T02:45:26;99516.13;;;-1.29
76476;BMP280;65308;50.078;14.854;2023-04-06T02:47:53;99512.69;;;-1.34
76476;BMP280;65308;50.078;14.854;2023-04-06T02:50:21;99510.81;;;-1.33
76476;BMP280;65308;50.078;14.854;2023-04-06T02:52:48;99517.94;;;-1.34
76476;BMP280;65308;50.078;14.854;2023-04-06T02:55:15;99517.94;;;-1.34
76476;BMP280;65308;50.078;14.854;2023-04-06T02:57:42;99520.63;;;-1.30
76476;BMP280;65308;50.078;14.854;2023-04-06T03:00:09;99521.38;;;-1.29
76476;BMP280;65308;50.078;14.854;2023-04-06T03:02:36;99521.47;;;-1.26
76476;BMP280;65308;50.078;14.854;2023-04-06T03:05:04;99518.75;;;-1.29
76476;BMP280;65308;50.078;14.854;2023-04-06T03:07:32;99527.00;;;-1.31
76476;BMP280;65308;50.078;14.854;2023-04-06T03:09:59;99524.34;;;-1.31
76476;BMP280;65308;50.078;14.854;2023-04-06T03:12:25;99535.63;;;-1.30
76476;BMP280;65308;50.078;14.854;2023-04-06T03:14:52;99542.84;;;-1.59
76476;BMP280;65308;50.078;14.854;2023-04-06T03:17:19;99539.53;;;-1.56
76476;BMP280;65308;50.078;14.854;2023-04-06T03:19:46;99533.56;;;-1.53
76476;BMP280;65308;50.078;14.854;2023-04-06T03:22:12;99535.53;;;-1.50
76476;BMP280;65308;50.078;14.854;2023-04-06T03:24:40;99531.91;;;-1.45
76476;BMP280;65308;50.078;14.854;2023-04-06T03:27:07;99535.47;;;-1.38
76476;BMP280;65308;50.078;14.854;2023-04-06T03:29:34;99524.28;;;-1.35
76476;BMP280;65308;50.078;14.854;2023-04-06T03:32:01;99525.53;;;-1.28
76476;BMP280;65308;50.078;14.854;2023-04-06T03:34:27;99539.00;;;-1.30
76476;BMP280;65308;50.078;14.854;2023-04-06T03:36:54;99536.47;;;-1.26
76476;BMP280;65308;50.078;14.854;2023-04-06T03:39:21;99537.56;;;-1.27
76476;BMP280;65308;50.078;14.854;2023-04-06T03:41:49;99542.38;;;-1.29
76476;BMP280;65308;50.078;14.854;2023-04-06T03:44:16;99534.53;;;-1.45
76476;BMP280;65308;50.078;14.854;2023-04-06T03:46:43;99543.16;;;-1.45
76476;BMP280;65308;50.078;14.854;2023-04-06T03:49:09;99548.66;;;-1.50
76476;BMP280;65308;50.078;14.854;2023-04-06T03:51:36;99555.84;;;-1.47
76476;BMP280;65308;50.078;14.854;2023-04-06T03:54:03;99561.44;;;-1.48
76476;BMP280;65308;50.078;14.854;2023-04-06T03:56:30;99561.44;;;-1.48
76476;BMP280;65308;50.078;14.854;2023-04-06T03:58:58;99560.69;;;-1.49
76476;BMP280;65308;50.078;14.854;2023-04-06T04:01:25;99557.47;;;-1.58
76476;BMP280;65308;50.078;14.854;2023-04-06T04:03:51;99557.47;;;-1.58
76476;BMP280;65308;50.078;14.854;2023-04-06T04:06:18;99568.13;;;-1.51
76476;BMP280;65308;50.078;14.854;2023-04-06T04:08:45;99573.31;;;-1.39
76476;BMP280;65308;50.078;14.854;2023-04-06T04:11:11;99567.72;;;-1.69
76476;BMP280;65308;50.078;14.854;2023-04-06T04:13:38;99562.97;;;-1.63
76476;BMP280;65308;50.078;14.854;2023-04-06T04:16:06;99558.06;;;-1.65
76476;BMP280;65308;50.078;14.854;2023-04-06T04:18:33;99552.81;;;-1.65
76476;BMP280;65308;50.078;14.854;2023-04-06T04:21:00;99564.09;;;-1.64
76476;BMP280;65308;50.078;14.854;2023-04-06T04:23:26;99559.66;;;-1.60
76476;BMP280;65308;50.078;14.854;2023-04-06T04:25:53;99555.97;;;-1.59
76476;BMP280;65308;50.078;14.854;2023-04-06T04:28:20;99568.66;;;-1.61
76476;BMP280;65308;50.078;14.854;2023-04-06T04:30:47;99566.03;;;-1.61
76476;BMP280;65308;50.078;14.854;2023-04-06T04:33:15;99575.09;;;-1.59
76476;BMP280;65308;50.078;14.854;2023-04-06T04:35:41;99570.16;;;-1.60
76476;BMP280;65308;50.078;14.854;2023-04-06T04:38:08;99573.06;;;-1.49
76476;BMP280;65308;50.078;14.854;2023-04-06T04:40:34;99573.97;;;-1.58
76476;BMP280;65308;50.078;14.854;2023-04-06T04:43:01;99578.03;;;-1.60
76476;BMP280;65308;50.078;14.854;2023-04-06T04:45:28;99580.25;;;-1.46
76476;BMP280;65308;50.078;14.854;2023-04-06T04:47:55;99591.53;;;-1.14
76476;BMP280;65308;50.078;14.854;2023-04-06T04:50:23;99596.09;;;-0.72
76476;BMP280;65308;50.078;14.854;2023-04-06T04:52:50;99582.91;;;-0.37
76476;BMP280;65308;50.078;14.854;2023-04-06T04:55:16;99592.22;;;-0.20
76476;BMP280;65308;50.078;14.854;2023-04-06T04:57:43;99585.38;;;0.18
76476;BMP280;65308;50.078;14.854;2023-04-06T05:00:11;99588.16;;;0.78
76476;BMP280;65308;50.078;14.854;2023-04-06T05:02:38;99594.41;;;1.61
76476;BMP280;65308;50.078;14.854;2023-04-06T05:05:05;99598.88;;;2.42
76476;BMP280;65308;50.078;14.854;2023-04-06T05:07:34;99606.03;;;3.04
76476;BMP280;65308;50.078;14.854;2023-04-06T05:10:01;99608.28;;;3.02
76476;BMP280;65308;50.078;14.854;2023-04-06T05:12:27;99611.06;;;3.52
76476;BMP280;65308;50.078;14.854;2023-04-06T05:14:54;99616.34;;;4.70
76476;BMP280;65308;50.078;14.854;2023-04-06T05:17:21;99616.13;;;5.83
76476;BMP280;65308;50.078;14.854;2023-04-06T05:19:48;99624.97;;;6.90
76476;BMP280;65308;50.078;14.854;2023-04-06T05:22:15;99620.97;;;8.07
76476;BMP280;65308;50.078;14.854;2023-04-06T05:24:44;99614.59;;;9.16
76476;BMP280;65308;50.078;14.854;2023-04-06T05:27:11;99616.78;;;10.29
76476;BMP280;65308;50.078;14.854;2023-04-06T05:29:37;99630.63;;;11.42
76476;BMP280;65308;50.078;14.854;2023-04-06T05:32:05;99634.56;;;12.51
76476;BMP280;65308;50.078;14.854;2023-04-06T05:34:31;99633.63;;;13.53
76476;BMP280;65308;50.078;14.854;2023-04-06T05:36:58;99634.22;;;14.55
76476;BMP280;65308;50.078;14.854;2023-04-06T05:39:25;99643.72;;;15.61
76476;BMP280;65308;50.078;14.854;2023-04-06T05:41:53;99644.66;;;16.61
76476;BMP280;65308;50.078;14.854;2023-04-06T05:44:20;99650.28;;;17.45
76476;BMP280;65308;50.078;14.854;2023-04-06T05:46:47;99649.31;;;18.31
76476;BMP280;65308;50.078;14.854;2023-04-06T05:49:13;99642.22;;;18.94
76476;BMP280;65308;50.078;14.854;2023-04-06T05:51:40;99653.19;;;19.33
76476;BMP280;65308;50.078;14.854;2023-04-06T05:54:07;99652.00;;;20.07
76476;BMP280;65308;50.078;14.854;2023-04-06T05:56:33;99658.03;;;20.58
76476;BMP280;65308;50.078;14.854;2023-04-06T05:59:02;99663.56;;;20.99
76476;BMP280;65308;50.078;14.854;2023-04-06T06:01:28;99657.84;;;21.74
76476;BMP280;65308;50.078;14.854;2023-04-06T06:03:56;99658.78;;;22.50
76476;BMP280;65308;50.078;14.854;2023-04-06T06:06:25;99659.38;;;23.18
76476;BMP280;65308;50.078;14.854;2023-04-06T06:08:55;99652.34;;;23.81
76476;BMP280;65308;50.078;14.854;2023-04-06T06:11:23;99648.16;;;24.20
76476;BMP280;65308;50.078;14.854;2023-04-06T06:13:50;99649.72;;;24.97
76476;BMP280;65308;50.078;14.854;2023-04-06T06:16:18;99649.50;;;25.57
76476;BMP280;65308;50.078;14.854;2023-04-06T06:18:45;99657.84;;;26.09
76476;BMP280;65308;50.078;14.854;2023-04-06T06:21:12;99650.25;;;26.45
76476;BMP280;65308;50.078;14.854;2023-04-06T06:23:39;99656.97;;;27.03
76476;BMP280;65308;50.078;14.854;2023-04-06T06:26:06;99657.28;;;27.53
76476;BMP280;65308;50.078;14.854;2023-04-06T06:28:33;99654.28;;;27.89
76476;BMP280;65308;50.078;14.854;2023-04-06T06:31:01;99658.41;;;28.46
76476;BMP280;65308;50.078;14.854;2023-04-06T06:33:34;99655.28;;;28.74
76476;BMP280;65308;50.078;14.854;2023-04-06T06:36:00;99657.47;;;29.18
76476;BMP280;65308;50.078;14.854;2023-04-06T06:38:27;99654.53;;;29.85
76476;BMP280;65308;50.078;14.854;2023-04-06T06:40:54;99663.91;;;30.26
76476;BMP280;65308;50.078;14.854;2023-04-06T06:43:22;99655.56;;;30.80
76476;BMP280;65308;50.078;14.854;2023-04-06T06:45:51;99657.38;;;31.43
76476;BMP280;65308;50.078;14.854;2023-04-06T06:48:18;99662.84;;;31.82
76476;BMP280;65308;50.078;14.854;2023-04-06T06:50:48;99664.47;;;32.26
76476;BMP280;65308;50.078;14.854;2023-04-06T06:53:15;99665.25;;;32.48
76476;BMP280;65308;50.078;14.854;2023-04-06T06:55:42;99658.94;;;32.78
76476;BMP280;65308;50.078;14.854;2023-04-06T06:58:10;99652.19;;;33.24
76476;BMP280;65308;50.078;14.854;2023-04-06T07:00:37;99647.47;;;33.71
76476;BMP280;65308;50.078;14.854;2023-04-06T07:03:05;99650.69;;;34.12
76476;BMP280;65308;50.078;14.854;2023-04-06T07:05:35;99649.66;;;34.43
76476;BMP280;65308;50.078;14.854;2023-04-06T07:08:04;99652.00;;;35.09
76476;BMP280;65308;50.078;14.854;2023-04-06T07:10:30;99656.50;;;35.53
76476;BMP280;65308;50.078;14.854;2023-04-06T07:12:57;99655.41;;;35.72
76476;BMP280;65308;50.078;14.854;2023-04-06T07:15:24;99660.44;;;35.75
76476;BMP280;65308;50.078;14.854;2023-04-06T07:17:51;99661.81;;;36.15
76476;BMP280;65308;50.078;14.854;2023-04-06T07:20:19;99666.03;;;36.87
76476;BMP280;65308;50.078;14.854;2023-04-06T07:22:46;99666.13;;;37.50
76476;BMP280;65308;50.078;14.854;2023-04-06T07:25:14;99667.72;;;37.86
76476;BMP280;65308;50.078;14.854;2023-04-06T07:27:41;99674.81;;;38.21
76476;BMP280;65308;50.078;14.854;2023-04-06T07:30:08;99676.94;;;38.56
76476;BMP280;65308;50.078;14.854;2023-04-06T07:32:35;99680.19;;;39.04
76476;BMP280;65308;50.078;14.854;2023-04-06T07:35:02;99677.69;;;39.12
76476;BMP280;65308;50.078;14.854;2023-04-06T07:37:29;99673.63;;;39.54
76476;BMP280;65308;50.078;14.854;2023-04-06T07:39:56;99668.13;;;39.98
76476;BMP280;65308;50.078;14.854;2023-04-06T07:42:24;99670.13;;;40.37
76476;BMP280;65308;50.078;14.854;2023-04-06T07:44:50;99671.53;;;40.38
76476;BMP280;65308;50.078;14.854;2023-04-06T07:47:17;99674.66;;;40.70
76476;BMP280;65308;50.078;14.854;2023-04-06T07:49:44;99667.06;;;40.98
76476;BMP280;65308;50.078;14.854;2023-04-06T07:52:11;99665.84;;;41.29
76476;BMP280;65308;50.078;14.854;2023-04-06T07:54:37;99667.69;;;41.73
76476;BMP280;65308;50.078;14.854;2023-04-06T07:57:04;99673.72;;;41.89
76476;BMP280;65308;50.078;14.854;2023-04-06T07:59:32;99667.34;;;42.16
76476;BMP280;65308;50.078;14.854;2023-04-06T08:01:59;99665.53;;;42.59
76476;BMP280;65308;50.078;14.854;2023-04-06T08:04:26;99663.75;;;43.09
76476;BMP280;65308;50.078;14.854;2023-04-06T08:06:52;99668.09;;;43.55
76476;BMP280;65308;50.078;14.854;2023-04-06T08:09:19;99663.41;;;43.29
76476;BMP280;65308;50.078;14.854;2023-04-06T08:11:46;99658.66;;;42.68
76476;BMP280;65308;50.078;14.854;2023-04-06T08:14:15;99660.78;;;42.35
76476;BMP280;65308;50.078;14.854;2023-04-06T08:16:44;99658.13;;;41.56
76476;BMP280;65308;50.078;14.854;2023-04-06T08:19:11;99656.13;;;41.60
76476;BMP280;65308;50.078;14.854;2023-04-06T08:21:37;99657.38;;;41.53
76476;BMP280;65308;50.078;14.854;2023-04-06T08:24:05;99644.97;;;40.63
76476;BMP280;65308;50.078;14.854;2023-04-06T08:26:32;99646.91;;;39.71
76476;BMP280;65308;50.078;14.854;2023-04-06T08:28:58;99645.84;;;39.60
76476;BMP280;65308;50.078;14.854;2023-04-06T08:31:25;99642.03;;;39.32
76476;BMP280;65308;50.078;14.854;2023-04-06T08:33:54;99646.25;;;39.13
76476;BMP280;65308;50.078;14.854;2023-04-06T08:36:21;99645.44;;;39.11
76476;BMP280;65308;50.078;14.854;2023-04-06T08:38:48;99632.31;;;38.78
76476;BMP280;65308;50.078;14.854;2023-04-06T08:41:16;99633.59;;;38.75
76476;BMP280;65308;50.078;14.854;2023-04-06T08:43:44;99632.41;;;38.44
76476;BMP280;65308;50.078;14.854;2023-04-06T08:46:12;99619.84;;;36.54
76476;BMP280;65308;50.078;14.854;2023-04-06T08:48:40;99623.41;;;35.73
76476;BMP280;65308;50.078;14.854;2023-04-06T08:51:08;99624.69;;;35.70
76476;BMP280;65308;50.078;14.854;2023-04-06T08:53:36;99625.91;;;35.67
76476;BMP280;65308;50.078;14.854;2023-04-06T08:56:04;99621.75;;;35.68
76476;BMP280;65308;50.078;14.854;2023-04-06T08:58:32;99622.38;;;35.52
76476;BMP280;65308;50.078;14.854;2023-04-06T09:01:00;99615.50;;;34.28
76476;BMP280;65308;50.078;14.854;2023-04-06T09:03:29;99610.38;;;33.31
76476;BMP280;65308;50.078;14.854;2023-04-06T09:05:56;99622.38;;;33.13
76476;BMP280;65308;50.078;14.854;2023-04-06T09:08:25;99612.03;;;32.18
76476;BMP280;65308;50.078;14.854;2023-04-06T09:10:52;99608.31;;;31.94
76476;BMP280;65308;50.078;14.854;2023-04-06T09:13:19;99605.22;;;31.49
76476;BMP280;65308;50.078;14.854;2023-04-06T09:15:46;99608.06;;;29.82
76476;BMP280;65308;50.078;14.854;2023-04-06T09:18:12;99605.16;;;30.07
76476;BMP280;65308;50.078;14.854;2023-04-06T09:20:39;99606.13;;;30.02
76476;BMP280;65308;50.078;14.854;2023-04-06T09:23:06;99603.06;;;29.19
76476;BMP280;65308;50.078;14.854;2023-04-06T09:25:34;99596.72;;;28.49
76476;BMP280;65308;50.078;14.854;2023-04-06T09:28:03;99590.28;;;28.71
76476;BMP280;65308;50.078;14.854;2023-04-06T09:30:30;99590.84;;;26.63
76476;BMP280;65308;50.078;14.854;2023-04-06T09:32:57;99584.56;;;26.32
76476;BMP280;65308;50.078;14.854;2023-04-06T09:35:24;99581.50;;;26.89
76476;BMP280;65308;50.078;14.854;2023-04-06T09:37:52;99587.00;;;26.82
76476;BMP280;65308;50.078;14.854;2023-04-06T09:40:20;99579.78;;;26.33
76476;BMP280;65308;50.078;14.854;2023-04-06T09:42:50;99578.59;;;25.61
76476;BMP280;65308;50.078;14.854;2023-04-06T09:45:19;99578.34;;;24.40
76476;BMP280;65308;50.078;14.854;2023-04-06T09:47:46;99572.72;;;24.25
76476;BMP280;65308;50.078;14.854;2023-04-06T09:50:14;99572.94;;;23.34
76476;BMP280;65308;50.078;14.854;2023-04-06T09:52:46;99574.66;;;23.63
76476;BMP280;65308;50.078;14.854;2023-04-06T09:55:23;99576.31;;;23.40
76476;BMP280;65308;50.078;14.854;2023-04-06T09:57:57;99567.03;;;22.84
76476;BMP280;65308;50.078;14.854;2023-04-06T10:00:25;99564.13;;;22.96
76476;BMP280;65308;50.078;14.854;2023-04-06T10:02:56;99572.03;;;22.05
76476;BMP280;65308;50.078;14.854;2023-04-06T10:05:31;99561.00;;;21.97
76476;BMP280;65308;50.078;14.854;2023-04-06T10:08:06;99560.00;;;22.57
76476;BMP280;65308;50.078;14.854;2023-04-06T10:10:33;99562.13;;;22.64
76476;BMP280;65308;50.078;14.854;2023-04-06T10:13:01;99558.91;;;22.79
76476;BMP280;65308;50.078;14.854;2023-04-06T10:15:28;99551.66;;;23.00
76476;BMP280;65308;50.078;14.854;2023-04-06T10:17:56;99562.78;;;22.51
76476;BMP280;65308;50.078;14.854;2023-04-06T10:20:26;99549.91;;;22.84
76476;BMP280;65308;50.078;14.854;2023-04-06T10:22:57;99545.53;;;22.62
76476;BMP280;65308;50.078;14.854;2023-04-06T10:25:29;99545.09;;;22.20
76476;BMP280;65308;50.078;14.854;2023-04-06T10:28:01;99546.91;;;21.93
76476;BMP280;65308;50.078;14.854;2023-04-06T10:30:28;99542.22;;;20.79
76476;BMP280;65308;50.078;14.854;2023-04-06T10:32:56;99535.09;;;20.65
76476;BMP280;65308;50.078;14.854;2023-04-06T10:35:38;99531.09;;;20.30
76476;BMP280;65308;50.078;14.854;2023-04-06T10:38:05;99531.16;;;20.13
76476;BMP280;65308;50.078;14.854;2023-04-06T10:40:35;99529.47;;;19.94
76476;BMP280;65308;50.078;14.854;2023-04-06T10:43:17;99532.09;;;20.27
76476;BMP280;65308;50.078;14.854;2023-04-06T10:45:44;99525.81;;;20.49
76476;BMP280;65308;50.078;14.854;2023-04-06T10:48:14;99526.50;;;20.55
76476;BMP280;65308;50.078;14.854;2023-04-06T10:50:43;99528.97;;;20.59
76476;BMP280;65308;50.078;14.854;2023-04-06T10:53:10;99522.38;;;19.23
76476;BMP280;65308;50.078;14.854;2023-04-06T10:55:39;99515.25;;;19.43
76476;BMP280;65308;50.078;14.854;2023-04-06T10:58:06;99524.00;;;18.48
76476;BMP280;65308;50.078;14.854;2023-04-06T11:00:35;99517.38;;;18.60
76476;BMP280;65308;50.078;14.854;2023-04-06T11:03:09;99508.06;;;18.89
76476;BMP280;65308;50.078;14.854;2023-04-06T11:05:36;99516.50;;;18.31
76476;BMP280;65308;50.078;14.854;2023-04-06T11:08:03;99511.25;;;18.11
76476;BMP280;65308;50.078;14.854;2023-04-06T11:10:30;99515.13;;;17.62
76476;BMP280;65308;50.078;14.854;2023-04-06T11:12:56;99512.16;;;17.60
76476;BMP280;65308;50.078;14.854;2023-04-06T11:15:24;99518.22;;;17.81
76476;BMP280;65308;50.078;14.854;2023-04-06T11:17:52;99516.03;;;16.95
76476;BMP280;65308;50.078;14.854;2023-04-06T11:20:19;99515.88;;;17.05
76476;BMP280;65308;50.078;14.854;2023-04-06T11:22:52;99515.00;;;16.72
76476;BMP280;65308;50.078;14.854;2023-04-06T11:25:22;99510.41;;;16.79
76476;BMP280;65308;50.078;14.854;2023-04-06T11:27:50;99503.16;;;16.64
76476;BMP280;65308;50.078;14.854;2023-04-06T11:30:20;99496.31;;;16.48
76476;BMP280;65308;50.078;14.854;2023-04-06T11:32:47;99494.47;;;16.19
76476;BMP280;65308;50.078;14.854;2023-04-06T11:35:21;99496.63;;;16.15
76476;BMP280;65308;50.078;14.854;2023-04-06T11:37:49;99495.94;;;16.00
76476;BMP280;65308;50.078;14.854;2023-04-06T11:40:20;99498.53;;;15.94
76476;BMP280;65308;50.078;14.854;2023-04-06T11:42:52;99486.72;;;15.92
76476;BMP280;65308;50.078;14.854;2023-04-06T11:45:20;99485.22;;;15.91
76476;BMP280;65308;50.078;14.854;2023-04-06T11:47:56;99483.69;;;15.84
76476;BMP280;65308;50.078;14.854;2023-04-06T11:50:32;99485.78;;;15.60
76476;BMP280;65308;50.078;14.854;2023-04-06T11:53:00;99482.03;;;15.28
76476;BMP280;65308;50.078;14.854;2023-04-06T11:55:28;99479.19;;;15.07
76476;BMP280;65308;50.078;14.854;2023-04-06T11:57:55;99472.16;;;14.95
76476;BMP280;65308;50.078;14.854;2023-04-06T12:00:22;99470.44;;;14.83
76476;BMP280;65308;50.078;14.854;2023-04-06T12:02:49;99463.31;;;14.56
76476;BMP280;65308;50.078;14.854;2023-04-06T12:05:16;99467.09;;;14.49
76476;BMP280;65308;50.078;14.854;2023-04-06T12:07:45;99463.44;;;14.37
76476;BMP280;65308;50.078;14.854;2023-04-06T12:10:12;99451.91;;;14.37
76476;BMP280;65308;50.078;14.854;2023-04-06T12:12:40;99458.00;;;14.22
76476;BMP280;65308;50.078;14.854;2023-04-06T12:15:07;99457.56;;;14.15
76476;BMP280;65308;50.078;14.854;2023-04-06T12:17:34;99453.06;;;14.12
76476;BMP280;65308;50.078;14.854;2023-04-06T12:20:01;99451.47;;;14.05
76476;BMP280;65308;50.078;14.854;2023-04-06T12:22:29;99453.44;;;13.95
76476;BMP280;65308;50.078;14.854;2023-04-06T12:24:57;99444.47;;;13.56
76476;BMP280;65308;50.078;14.854;2023-04-06T12:27:24;99443.25;;;13.75
76476;BMP280;65308;50.078;14.854;2023-04-06T12:29:51;99447.63;;;13.64
76476;BMP280;65308;50.078;14.854;2023-04-06T12:32:18;99440.47;;;13.94
76476;BMP280;65308;50.078;14.854;2023-04-06T12:34:45;99437.78;;;13.94
76476;BMP280;65308;50.078;14.854;2023-04-06T12:37:12;99441.06;;;14.22
76476;BMP280;65308;50.078;14.854;2023-04-06T12:39:38;99436.53;;;14.04
76476;BMP280;65308;50.078;14.854;2023-04-06T12:42:07;99435.00;;;12.82
76476;BMP280;65308;50.078;14.854;2023-04-06T12:44:34;99433.63;;;12.09
76476;BMP280;65308;50.078;14.854;2023-04-06T12:47:01;99417.59;;;12.18
76476;BMP280;65308;50.078;14.854;2023-04-06T12:49:29;99422.72;;;12.44
76476;BMP280;65308;50.078;14.854;2023-04-06T12:51:57;99417.97;;;12.66
76476;BMP280;65308;50.078;14.854;2023-04-06T12:54:27;99419.41;;;12.31
76476;BMP280;65308;50.078;14.854;2023-04-06T12:56:54;99420.59;;;12.20
76476;BMP280;65308;50.078;14.854;2023-04-06T12:59:23;99419.94;;;12.16
76476;BMP280;65308;50.078;14.854;2023-04-06T13:01:50;99420.38;;;12.06
76476;BMP280;65308;50.078;14.854;2023-04-06T13:04:18;99418.72;;;11.99
76476;BMP280;65308;50.078;14.854;2023-04-06T13:06:45;99416.63;;;11.41
76476;BMP280;65308;50.078;14.854;2023-04-06T13:09:11;99416.38;;;11.26
76476;BMP280;65308;50.078;14.854;2023-04-06T13:11:38;99405.66;;;11.26
76476;BMP280;65308;50.078;14.854;2023-04-06T13:14:06;99409.91;;;11.58
76476;BMP280;65308;50.078;14.854;2023-04-06T13:16:34;99406.38;;;11.70
76476;BMP280;65308;50.078;14.854;2023-04-06T13:19:01;99398.31;;;11.17
76476;BMP280;65308;50.078;14.854;2023-04-06T13:21:28;99395.44;;;11.33
76476;BMP280;65308;50.078;14.854;2023-04-06T13:23:55;99394.91;;;11.48
76476;BMP280;65308;50.078;14.854;2023-04-06T13:26:22;99401.03;;;11.48
76476;BMP280;65308;50.078;14.854;2023-04-06T13:28:49;99395.84;;;11.54
76476;BMP280;65308;50.078;14.854;2023-04-06T13:31:17;99396.94;;;11.88
76476;BMP280;65308;50.078;14.854;2023-04-06T13:33:46;99391.63;;;11.75
76476;BMP280;65308;50.078;14.854;2023-04-06T13:36:12;99393.50;;;11.56
76476;BMP280;65308;50.078;14.854;2023-04-06T13:38:39;99380.47;;;11.45
76476;BMP280;65308;50.078;14.854;2023-04-06T13:41:06;99377.47;;;11.65
76476;BMP280;65308;50.078;14.854;2023-04-06T13:43:33;99382.03;;;11.33
76476;BMP280;65308;50.078;14.854;2023-04-06T13:46:00;99386.97;;;11.35
76476;BMP280;65308;50.078;14.854;2023-04-06T13:48:27;99378.56;;;11.55
76476;BMP280;65308;50.078;14.854;2023-04-06T13:50:55;99371.53;;;11.17
76476;BMP280;65308;50.078;14.854;2023-04-06T13:53:23;99377.13;;;11.32
76476;BMP280;65308;50.078;14.854;2023-04-06T13:55:53;99388.53;;;11.23
76476;BMP280;65308;50.078;14.854;2023-04-06T13:58:20;99375.75;;;11.27